createdAt,value
2023-04-25T00:02:07.313Z,1009.0757662816675
2023-04-25T00:08:27.306Z,1009.1064015595479
2023-04-25T00:14:46.917Z,1009.162291068563
2023-04-25T00:21:06.537Z,1009.2085498990847
2023-04-25T00:27:26.043Z,1009.229198098386
2023-04-25T00:33:46.299Z,1009.2643617647793
2023-04-25T00:40:06.693Z,1009.3113033312111
2023-04-25T00:46:28.630Z,1009.321987070319
2023-04-25T00:53:16.259Z,1009.4266314340574
2023-04-25T00:59:36.766Z,1009.4507139097459
2023-04-25T01:05:56.304Z,1009.4564999626381
2023-04-25T01:12:16.824Z,1009.5091121982077
2023-04-25T01:18:38.254Z,1009.5363918263009
2023-04-25T01:24:58.036Z,1009.5480833751045
2023-04-25T01:31:17.389Z,1009.5937508351752
2023-04-25T01:46:59.547Z,1009.8036048779109
2023-04-25T01:53:19.653Z,1009.9237816818635
2023-04-25T02:05:57.257Z,1010.0276758728443
2023-04-25T02:12:17.497Z,1010.1302029881716
2023-04-25T02:18:39.346Z,1010.1548946182647
2023-04-25T02:28:43.270Z,1010.1941326611133
2023-04-25T02:37:34.527Z,1010.1760314693308
2023-04-25T02:49:10.484Z,1010.0395621296959
2023-04-25T03:01:07.638Z,1010.0673918568122
2023-04-25T03:07:27.594Z,1010.0329124674031
2023-04-25T03:13:47.178Z,1010.0614256572143
2023-04-25T03:20:07.956Z,1010.1416673587341
2023-04-25T03:26:27.592Z,1010.1874861856269
2023-04-25T03:32:48.317Z,1010.2202259745499
2023-04-25T03:39:09.202Z,1010.2242120573127
2023-04-25T03:51:04.188Z,1010.3194250229981
2023-04-25T04:01:51.358Z,1010.4565363569861
2023-04-25T04:08:11.757Z,1010.5397323492585
2023-04-25T04:20:01.565Z,1010.6883546265543
2023-04-25T04:26:22.896Z,1010.7493892225085
2023-04-25T04:32:43.992Z,1010.842086665514
2023-04-25T04:39:07.515Z,1010.9577381129643
2023-04-25T04:45:31.939Z,1011.051169199912
2023-04-25T04:55:36.495Z,1011.1169077323199
2023-04-25T05:02:04.632Z,1011.1752432661654
2023-04-25T05:08:28.646Z,1011.234884957135
2023-04-25T05:15:50.716Z,1011.2832742243064
2023-04-25T05:22:14.268Z,1011.3428978586909
2023-04-25T05:38:13.184Z,1011.4270159031403
2023-04-25T05:44:38.311Z,1011.4938846659853
2023-04-25T05:54:53.211Z,1011.5839013577954
2023-04-25T06:02:51.894Z,1011.6867585657563
2023-04-25T06:09:14.668Z,1011.6993537490736
2023-04-25T06:15:36.273Z,1011.7119217653693
2023-04-25T06:22:01.530Z,1011.7692332618292
2023-04-25T06:28:22.878Z,1011.8561944040672
2023-04-25T06:34:47.414Z,1011.7986820286214
2023-04-25T06:41:08.903Z,1011.8385580741889
2023-04-25T06:47:50.531Z,1011.9013804242256
2023-04-25T06:54:12.456Z,1011.9424650150228
2023-04-25T07:01:02.121Z,1012.0256203666981
2023-04-25T07:07:23.259Z,1012.086458381037
2023-04-25T07:13:43.979Z,1012.1902952563313
2023-04-25T07:25:48.685Z,1012.2745775138457
2023-04-25T07:32:09.665Z,1012.2562313807753
2023-04-25T07:38:30.478Z,1012.2981861549993
2023-04-25T07:51:07.300Z,1012.4069364417089
2023-04-25T07:57:28.164Z,1012.4113303084785
2023-04-25T08:03:49.931Z,1012.4379358413687
2023-04-25T08:10:11.326Z,1012.57552148414
2023-04-25T08:16:32.548Z,1012.6314607829776
2023-04-25T08:22:53.894Z,1012.7273984176849
2023-04-25T08:29:14.986Z,1012.9433463320444
2023-04-25T08:35:36.195Z,1013.1229808217528
2023-04-25T08:41:57.729Z,1013.1030343996756
2023-04-25T08:48:18.663Z,1013.1841329538406
2023-04-25T08:54:41.606Z,1013.2376403172327
2023-04-25T09:01:03.063Z,1013.3541565690448
2023-04-25T09:07:24.085Z,1013.3670162646685
2023-04-25T09:13:45.062Z,1013.3796102525125
2023-04-25T09:20:19.128Z,1013.4826984347022
2023-04-25T09:26:40.023Z,1013.576062159252
2023-04-25T09:33:01.661Z,1013.6461055202053
2023-04-25T09:39:24.216Z,1013.7875311749514
2023-04-25T09:45:45.606Z,1013.9826635615696
2023-04-25T09:52:08.614Z,1014.0419138703592
2023-04-25T09:58:31.866Z,1014.0069193062162
2023-04-25T10:04:54.163Z,1014.0163344365269
2023-04-25T10:11:16.868Z,1014.0009445461153
2023-04-25T10:20:15.653Z,1013.9929151548021
2023-04-25T10:26:41.841Z,1014.0225450760723
2023-04-25T10:33:04.948Z,1014.1357776066333
2023-04-25T10:39:27.082Z,1014.2378934889484
2023-04-25T10:45:48.679Z,1014.2702351097412
2023-04-25T10:52:10.304Z,1014.2807239427334
2023-04-25T10:58:32.220Z,1014.2468803813474
2023-04-25T11:04:53.866Z,1014.2509511488303
2023-04-25T11:11:15.618Z,1014.2653285938169
2023-04-25T11:17:37.515Z,1014.3072417299629
2023-04-25T11:24:00.221Z,1014.3164734110925
2023-04-25T11:30:22.164Z,1014.4552503170634
2023-04-25T11:39:07.293Z,1014.8780593111766
2023-04-25T11:45:27.639Z,1014.9574444585389
2023-04-25T11:51:48.594Z,1014.7396093237998
2023-04-25T11:59:09.714Z,1014.7637344591548
2023-04-25T12:05:33.193Z,1014.8016311912361
2023-04-25T12:11:55.105Z,1014.9786877452752
2023-04-25T12:18:17.042Z,1015.0897476545638
2023-04-25T12:24:39.721Z,1015.0781459810598
2023-04-25T12:36:50.533Z,1015.1167418771238
2023-04-25T12:43:12.735Z,1015.1067184782418
2023-04-25T12:49:34.540Z,1015.08830250246
2023-04-25T13:06:54.678Z,1015.0795932225708
2023-04-25T13:13:16.000Z,1015.5077424464369
2023-04-25T13:19:36.828Z,1015.5109180801296
2023-04-25T13:25:58.009Z,1015.3111135508514
2023-04-25T13:37:56.316Z,1015.2220278438543
2023-04-25T13:45:36.881Z,1015.2350857246863
2023-04-25T13:51:59.135Z,1015.1994084135503
2023-04-25T13:58:22.944Z,1015.2452273773351
2023-04-25T14:09:12.707Z,1015.4025271656388
2023-04-25T14:17:47.058Z,1015.4800209402524
2023-04-25T14:26:25.745Z,1015.5302434130809
2023-04-25T14:35:32.256Z,1015.6770625141937
2023-04-25T14:47:25.509Z,1016.1577796662576
2023-04-25T14:53:47.754Z,1016.113574981819
2023-04-25T15:00:09.230Z,1016.0635347979683
2023-04-25T15:06:30.151Z,1016.0501490169431
2023-04-25T15:12:51.343Z,1016.0590013355198
2023-04-25T15:19:12.481Z,1016.151036195857
2023-04-25T15:25:34.068Z,1016.2290753969883
2023-04-25T15:31:55.219Z,1016.330595993322
2023-04-25T15:38:16.755Z,1016.2909774649358
2023-04-25T15:44:37.616Z,1016.3360727823466
2023-04-25T15:50:58.422Z,1016.3600486381744
2023-04-25T15:57:19.379Z,1016.3654091852409
2023-04-25T16:03:40.512Z,1016.3586633246268
2023-04-25T16:21:20.113Z,1016.4143092811281
2023-04-25T16:27:41.003Z,1016.4996557556059
2023-04-25T16:34:06.855Z,1016.5883398576418
2023-04-25T16:40:30.725Z,1016.6209169364887
2023-04-25T16:52:36.079Z,1016.597141514687
2023-04-25T16:58:57.860Z,1016.6507461679372
2023-04-25T17:05:18.708Z,1016.6305443907128
2023-04-25T17:11:39.608Z,1016.7109455904016
2023-04-25T17:18:36.950Z,1016.7912229607073
2023-04-25T17:26:21.473Z,1016.8751604192173
2023-04-25T17:32:42.622Z,1017.034768848715
2023-04-25T17:39:05.108Z,1017.0408189764397
2023-04-25T17:45:26.465Z,1017.0285163046987
2023-04-25T17:52:33.618Z,1017.039998711075
2023-04-25T17:58:55.495Z,1017.0574140267024
2023-04-25T18:05:18.304Z,1017.1223940644361
2023-04-25T18:11:39.539Z,1017.1736190083766
2023-04-25T18:18:01.587Z,1017.2867244356676
2023-04-25T18:33:57.062Z,1017.3861411567591
2023-04-25T18:42:07.991Z,1017.5398042688989
2023-04-25T18:48:30.040Z,1017.6156002690585
2023-04-25T18:55:01.585Z,1017.7150680604522
2023-04-25T19:01:22.498Z,1017.7726970895408
2023-04-25T19:07:54.094Z,1017.8324559618202
2023-04-25T19:14:17.336Z,1017.969141076294
2023-04-25T19:32:44.049Z,1018.0977672554405
2023-04-25T19:39:16.082Z,1018.11716855057
2023-04-25T19:47:42.569Z,1018.14268058964
2023-04-25T19:54:06.929Z,1018.1623473942543
2023-04-25T20:04:30.338Z,1018.2857501540738
2023-04-25T20:10:54.818Z,1018.2916683992415
2023-04-25T20:17:20.222Z,1018.310758186862
2023-04-25T20:26:39.750Z,1018.3533232293981
2023-04-25T20:33:06.466Z,1018.358878490829
2023-04-25T20:39:30.879Z,1018.39375134764
2023-04-25T20:48:08.075Z,1018.4078397679776
2023-04-25T20:55:21.140Z,1018.5243582626
2023-04-25T21:01:43.619Z,1018.5580824806268
2023-04-25T21:08:07.806Z,1018.5449378585998
2023-04-25T21:14:52.337Z,1018.4988371555244
2023-04-25T21:21:15.155Z,1018.5084944742629
2023-04-25T21:27:36.996Z,1018.4969131142325
2023-04-25T21:34:01.415Z,1018.4782961892524
2023-04-25T21:40:24.169Z,1018.521481120566
2023-04-25T21:46:45.023Z,1018.5157802437069
2023-04-25T21:53:08.478Z,1018.5231362643152
2023-04-25T21:59:29.472Z,1018.5328845920764
2023-04-25T22:05:52.220Z,1018.5412885001997
2023-04-25T22:17:29.942Z,1018.5648607269346
2023-04-25T22:25:04.901Z,1018.5658117879768
2023-04-25T22:37:23.859Z,1018.6285290241144
2023-04-25T22:43:44.124Z,1018.6591840175815
2023-04-25T22:50:06.295Z,1018.7039674295617
2023-04-25T22:56:28.136Z,1018.7782099161427
2023-04-25T23:02:50.637Z,1018.8623713962487
2023-04-25T23:09:14.256Z,1018.8683514278573
2023-04-25T23:15:36.332Z,1018.8532773717432
2023-04-25T23:21:55.854Z,1018.851958279723
2023-04-25T23:28:14.573Z,1018.8772207290821
2023-04-25T23:34:33.861Z,1018.9033490736997
2023-04-25T23:40:54.766Z,1018.8978551180471
2023-04-25T23:47:16.066Z,1018.921665370625
2023-04-25T23:53:35.939Z,1018.9630344854872
2023-04-25T23:59:56.318Z,1018.9643674022346
